<?xml version="1.0" encoding="UTF-8" standalone="no" ?>
<gpx xmlns="http://www.topografix.com/GPX/1/1" xmlns:xsi="http://www.w3.org/2001/XMLSchema-instance" xsi:schemaLocation="http://www.topografix.com/GPX/1/1 http://www.topografix.com/GPX/1/1/gpx.xsd" version="1.1" creator="VisuGPX - https://www.visugpx.com">
  <metadata>
    <name>Ajout Pyrénées</name>
    <desc><![CDATA[Randonnée sur le GR®654 Via Lemovicensis vers Saint-Jacques-de-Compostelle à travers les Landes et les Pyrénées-Atlantiques de Mont-de-Marsan à Saint-Palais. Gîtes d'étapes, Chambres d'hôtes, Maison d'hôtes, Hôtels, Camping, Refuges, Auberges, Commerces.]]></desc>
  </metadata>
  <trk>
    <name><![CDATA[GR®65 Via Podiensis De Larribar-Sorhapuru (Pyrénées-Atlantiques) à Roncesvalles (Espagne) (2021)]]></name>
    <desc><![CDATA[Randonnée avec le GR®65 Via Podiensis. Pèlerinage de Saint Jacques de Compostelle, à travers les Landes et les Pyrénées-Atlantique de Larribar-Sorhapuru à Roncevaux en Espagne. Gîtes d'étapes, Chambres d'hôtes, Hôtels, Camping, Refuges, Auberges.]]></desc>
    <extensions>
      <line xmlns="http://www.topografix.com/GPX/gpx_style/0/2">
        <color>000000</color>
        <width>4</width>
      </line>
    </extensions>
    <trkseg>
      <trkpt lat="43.29271" lon="-1.01257">
        <ele>122.828</ele>
        <time>2016-09-28T14:12:59Z</time>
      </trkpt>
      <trkpt lat="43.2925" lon="-1.01332">
        <ele>118.217</ele>
        <time>2016-09-28T14:13:39Z</time>
      </trkpt>
      <trkpt lat="43.29276" lon="-1.01508">
        <ele>109.508</ele>
        <time>2016-09-28T14:14:19Z</time>
      </trkpt>
      <trkpt lat="43.29335" lon="-1.01566">
        <ele>99.768</ele>
        <time>2016-09-28T14:14:59Z</time>
      </trkpt>
      <trkpt lat="43.29374" lon="-1.01658">
        <ele>92.965</ele>
        <time>2016-09-28T14:15:39Z</time>
      </trkpt>
      <trkpt lat="43.29396" lon="-1.01753">
        <ele>89.655</ele>
        <time>2016-09-28T14:16:19Z</time>
      </trkpt>
      <trkpt lat="43.29493" lon="-1.01879">
        <ele>86.496</ele>
        <time>2016-09-28T14:16:59Z</time>
      </trkpt>
      <trkpt lat="43.29554" lon="-1.01993">
        <ele>82.215</ele>
        <time>2016-09-28T14:17:39Z</time>
      </trkpt>
      <trkpt lat="43.29599" lon="-1.02169">
        <ele>82.427</ele>
        <time>2016-09-28T14:18:19Z</time>
      </trkpt>
      <trkpt lat="43.29632" lon="-1.02163">
        <ele>84.198</ele>
        <time>2016-09-28T14:18:59Z</time>
      </trkpt>
      <trkpt lat="43.29657" lon="-1.02191">
        <ele>81.65</ele>
        <time>2016-09-28T14:19:39Z</time>
      </trkpt>
      <trkpt lat="43.29688" lon="-1.02165">
        <ele>75.911</ele>
        <time>2016-09-28T14:20:19Z</time>
      </trkpt>
      <trkpt lat="43.29801" lon="-1.02186">
        <ele>61.921</ele>
        <time>2016-09-28T14:20:59Z</time>
      </trkpt>
      <trkpt lat="43.29809" lon="-1.02298">
        <ele>60.103</ele>
        <time>2016-09-28T14:21:39Z</time>
      </trkpt>
      <trkpt lat="43.29865" lon="-1.02324">
        <ele>65.308</ele>
        <time>2016-09-28T14:22:19Z</time>
      </trkpt>
      <trkpt lat="43.29874" lon="-1.02465">
        <ele>72.587</ele>
        <time>2016-09-28T14:22:59Z</time>
      </trkpt>
      <trkpt lat="43.2991" lon="-1.02583">
        <ele>86.614</ele>
        <time>2016-09-28T14:23:39Z</time>
      </trkpt>
      <trkpt lat="43.2989" lon="-1.0265">
        <ele>87.874</ele>
        <time>2016-09-28T14:24:19Z</time>
      </trkpt>
      <trkpt lat="43.2994" lon="-1.02723">
        <ele>99.465</ele>
        <time>2016-09-28T14:24:59Z</time>
      </trkpt>
      <trkpt lat="43.29921" lon="-1.02819">
        <ele>110.544</ele>
        <time>2016-09-28T14:25:39Z</time>
      </trkpt>
      <trkpt lat="43.29888" lon="-1.02875">
        <ele>114.836</ele>
        <time>2016-09-28T14:26:19Z</time>
      </trkpt>
      <trkpt lat="43.29884" lon="-1.03034">
        <ele>132.997</ele>
        <time>2016-09-28T14:26:59Z</time>
      </trkpt>
      <trkpt lat="43.2986" lon="-1.0307">
        <ele>133.519</ele>
        <time>2016-09-28T14:27:39Z</time>
      </trkpt>
      <trkpt lat="43.29877" lon="-1.033">
        <ele>144.365</ele>
        <time>2016-09-28T14:28:19Z</time>
      </trkpt>
      <trkpt lat="43.29879" lon="-1.03431">
        <ele>144.468</ele>
        <time>2016-09-28T14:28:59Z</time>
      </trkpt>
      <trkpt lat="43.29916" lon="-1.03562">
        <ele>150.814</ele>
        <time>2016-09-28T14:29:39Z</time>
      </trkpt>
      <trkpt lat="43.29648" lon="-1.03764">
        <ele>171.608</ele>
        <time>2016-09-28T14:30:19Z</time>
      </trkpt>
      <trkpt lat="43.29545" lon="-1.0381">
        <ele>191.062</ele>
        <time>2016-09-28T14:30:59Z</time>
      </trkpt>
      <trkpt lat="43.29379" lon="-1.03962">
        <ele>221.079</ele>
        <time>2016-09-28T14:31:39Z</time>
      </trkpt>
      <trkpt lat="43.29284" lon="-1.04022">
        <ele>235.739</ele>
        <time>2016-09-28T14:32:19Z</time>
      </trkpt>
      <trkpt lat="43.29189" lon="-1.04099">
        <ele>255.08</ele>
        <time>2016-09-28T14:32:59Z</time>
      </trkpt>
      <trkpt lat="43.29076" lon="-1.04108">
        <ele>262.749</ele>
        <time>2016-09-28T14:33:39Z</time>
      </trkpt>
      <trkpt lat="43.28864" lon="-1.04194">
        <ele>280.011</ele>
        <time>2016-09-28T14:34:19Z</time>
      </trkpt>
      <trkpt lat="43.28803" lon="-1.04196">
        <ele>282.892</ele>
        <time>2016-09-28T14:34:59Z</time>
      </trkpt>
      <trkpt lat="43.286" lon="-1.04217">
        <ele>275.084</ele>
        <time>2016-09-28T14:35:39Z</time>
      </trkpt>
      <trkpt lat="43.28408" lon="-1.0437">
        <ele>289.982</ele>
        <time>2016-09-28T14:36:19Z</time>
      </trkpt>
      <trkpt lat="43.28382" lon="-1.04308">
        <ele>286.117</ele>
        <time>2016-09-28T14:37:39Z</time>
      </trkpt>
      <trkpt lat="43.28296" lon="-1.04328">
        <ele>280.508</ele>
        <time>2016-09-28T14:38:19Z</time>
      </trkpt>
      <trkpt lat="43.28216" lon="-1.04377">
        <ele>269.454</ele>
        <time>2016-09-28T14:38:59Z</time>
      </trkpt>
      <trkpt lat="43.28101" lon="-1.04504">
        <ele>253.381</ele>
        <time>2016-09-28T14:39:39Z</time>
      </trkpt>
      <trkpt lat="43.28004" lon="-1.04497">
        <ele>244.951</ele>
        <time>2016-09-28T14:40:19Z</time>
      </trkpt>
      <trkpt lat="43.27846" lon="-1.04377">
        <ele>235.222</ele>
        <time>2016-09-28T14:40:59Z</time>
      </trkpt>
      <trkpt lat="43.27796" lon="-1.04321">
        <ele>224.061</ele>
        <time>2016-09-28T14:41:39Z</time>
      </trkpt>
      <trkpt lat="43.27649" lon="-1.0439">
        <ele>199.893</ele>
        <time>2016-09-28T14:42:19Z</time>
      </trkpt>
      <trkpt lat="43.27604" lon="-1.04433">
        <ele>191.044</ele>
        <time>2016-09-28T14:42:59Z</time>
      </trkpt>
      <trkpt lat="43.27546" lon="-1.04452">
        <ele>180.776</ele>
        <time>2016-09-28T14:43:39Z</time>
      </trkpt>
      <trkpt lat="43.2751" lon="-1.04517">
        <ele>169.179</ele>
        <time>2016-09-28T14:44:19Z</time>
      </trkpt>
      <trkpt lat="43.27516" lon="-1.04572">
        <ele>164.205</ele>
        <time>2016-09-28T14:44:59Z</time>
      </trkpt>
      <trkpt lat="43.27449" lon="-1.04587">
        <ele>157.225</ele>
        <time>2016-09-28T14:45:39Z</time>
      </trkpt>
      <trkpt lat="43.27415" lon="-1.04609">
        <ele>152.108</ele>
        <time>2016-09-28T14:46:19Z</time>
      </trkpt>
      <trkpt lat="43.27276" lon="-1.0466">
        <ele>149.363</ele>
        <time>2016-09-28T14:46:59Z</time>
      </trkpt>
      <trkpt lat="43.2726" lon="-1.04757">
        <ele>147.52</ele>
        <time>2016-09-28T14:47:39Z</time>
      </trkpt>
      <trkpt lat="43.27174" lon="-1.04906">
        <ele>131.17</ele>
        <time>2016-09-28T14:48:19Z</time>
      </trkpt>
      <trkpt lat="43.27195" lon="-1.04945">
        <ele>129.051</ele>
        <time>2016-09-28T14:48:59Z</time>
      </trkpt>
      <trkpt lat="43.27185" lon="-1.04981">
        <ele>122.11</ele>
        <time>2016-09-28T14:49:39Z</time>
      </trkpt>
      <trkpt lat="43.27096" lon="-1.05018">
        <ele>120.572</ele>
        <time>2016-09-28T14:50:19Z</time>
      </trkpt>
      <trkpt lat="43.27049" lon="-1.04919">
        <ele>131.883</ele>
        <time>2016-09-28T14:50:59Z</time>
      </trkpt>
      <trkpt lat="43.26984" lon="-1.05045">
        <ele>149.185</ele>
        <time>2016-09-28T14:51:39Z</time>
      </trkpt>
      <trkpt lat="43.26967" lon="-1.05266">
        <ele>168.066</ele>
        <time>2016-09-28T14:52:19Z</time>
      </trkpt>
      <trkpt lat="43.26934" lon="-1.05354">
        <ele>168.729</ele>
        <time>2016-09-28T14:52:59Z</time>
      </trkpt>
      <trkpt lat="43.26885" lon="-1.05378">
        <ele>166.521</ele>
        <time>2016-09-28T14:53:39Z</time>
      </trkpt>
      <trkpt lat="43.26863" lon="-1.05378">
        <ele>166.808</ele>
        <time>2016-09-28T14:54:19Z</time>
      </trkpt>
      <trkpt lat="43.26777" lon="-1.05412">
        <ele>171.572</ele>
        <time>2016-09-28T14:54:59Z</time>
      </trkpt>
      <trkpt lat="43.26673" lon="-1.05348">
        <ele>165.889</ele>
        <time>2016-09-28T14:55:39Z</time>
      </trkpt>
      <trkpt lat="43.26642" lon="-1.05316">
        <ele>163.649</ele>
        <time>2016-09-28T14:56:19Z</time>
      </trkpt>
      <trkpt lat="43.26617" lon="-1.05329">
        <ele>163.14</ele>
        <time>2016-09-28T14:56:59Z</time>
      </trkpt>
      <trkpt lat="43.26512" lon="-1.05472">
        <ele>150.349</ele>
        <time>2016-09-28T14:57:39Z</time>
      </trkpt>
      <trkpt lat="43.26517" lon="-1.05543">
        <ele>144.461</ele>
        <time>2016-09-28T14:58:19Z</time>
      </trkpt>
      <trkpt lat="43.2644" lon="-1.05552">
        <ele>140.092</ele>
        <time>2016-09-28T14:58:59Z</time>
      </trkpt>
      <trkpt lat="43.26349" lon="-1.05696">
        <ele>130.064</ele>
        <time>2016-09-28T14:59:39Z</time>
      </trkpt>
      <trkpt lat="43.26248" lon="-1.05691">
        <ele>130.061</ele>
        <time>2016-09-28T15:00:19Z</time>
      </trkpt>
      <trkpt lat="43.26195" lon="-1.05644">
        <ele>129.521</ele>
        <time>2016-09-28T15:00:59Z</time>
      </trkpt>
      <trkpt lat="43.26143" lon="-1.05636">
        <ele>135.813</ele>
        <time>2016-09-28T15:01:39Z</time>
      </trkpt>
      <trkpt lat="43.26138" lon="-1.05839">
        <ele>154.208</ele>
        <time>2016-09-28T15:02:19Z</time>
      </trkpt>
      <trkpt lat="43.26096" lon="-1.05912">
        <ele>155.982</ele>
        <time>2016-09-28T15:02:59Z</time>
      </trkpt>
      <trkpt lat="43.26076" lon="-1.05985">
        <ele>158.919</ele>
        <time>2016-09-28T15:03:39Z</time>
      </trkpt>
      <trkpt lat="43.26032" lon="-1.06039">
        <ele>163.029</ele>
        <time>2016-09-28T15:04:19Z</time>
      </trkpt>
      <trkpt lat="43.25941" lon="-1.06357">
        <ele>172.75</ele>
        <time>2016-09-28T15:04:59Z</time>
      </trkpt>
      <trkpt lat="43.25935" lon="-1.06612">
        <ele>158.089</ele>
        <time>2016-09-28T15:05:39Z</time>
      </trkpt>
      <trkpt lat="43.25951" lon="-1.0665">
        <ele>156.591</ele>
        <time>2016-09-28T15:06:19Z</time>
      </trkpt>
      <trkpt lat="43.25926" lon="-1.067">
        <ele>149.672</ele>
        <time>2016-09-28T15:06:59Z</time>
      </trkpt>
      <trkpt lat="43.25893" lon="-1.06704">
        <ele>146.654</ele>
        <time>2016-09-28T15:07:39Z</time>
      </trkpt>
      <trkpt lat="43.25882" lon="-1.06751">
        <ele>142.238</ele>
        <time>2016-09-28T15:08:19Z</time>
      </trkpt>
      <trkpt lat="43.25685" lon="-1.06816">
        <ele>130.07</ele>
        <time>2016-09-28T15:08:59Z</time>
      </trkpt>
      <trkpt lat="43.25666" lon="-1.06848">
        <ele>130.017</ele>
        <time>2016-09-28T15:09:39Z</time>
      </trkpt>
      <trkpt lat="43.2562" lon="-1.0685">
        <ele>130.008</ele>
        <time>2016-09-28T15:10:19Z</time>
      </trkpt>
      <trkpt lat="43.2549" lon="-1.06897">
        <ele>131.639</ele>
        <time>2016-09-28T15:10:59Z</time>
      </trkpt>
      <trkpt lat="43.25509" lon="-1.06998">
        <ele>147.886</ele>
        <time>2016-09-28T15:11:39Z</time>
      </trkpt>
      <trkpt lat="43.25565" lon="-1.07163">
        <ele>156.266</ele>
        <time>2016-09-28T15:12:19Z</time>
      </trkpt>
      <trkpt lat="43.25554" lon="-1.07232">
        <ele>156.637</ele>
        <time>2016-09-28T15:12:59Z</time>
      </trkpt>
      <trkpt lat="43.25515" lon="-1.07264">
        <ele>150.746</ele>
        <time>2016-09-28T15:13:39Z</time>
      </trkpt>
      <trkpt lat="43.25491" lon="-1.07324">
        <ele>149.468</ele>
        <time>2016-09-28T15:14:19Z</time>
      </trkpt>
      <trkpt lat="43.25482" lon="-1.07425">
        <ele>152.359</ele>
        <time>2016-09-28T15:14:59Z</time>
      </trkpt>
      <trkpt lat="43.2539" lon="-1.07498">
        <ele>151.071</ele>
        <time>2016-09-28T15:15:39Z</time>
      </trkpt>
      <trkpt lat="43.2538" lon="-1.07524">
        <ele>151.652</ele>
        <time>2016-09-28T15:16:19Z</time>
      </trkpt>
      <trkpt lat="43.25318" lon="-1.0759">
        <ele>148.753</ele>
        <time>2016-09-28T15:16:59Z</time>
      </trkpt>
      <trkpt lat="43.25254" lon="-1.07644">
        <ele>141.208</ele>
        <time>2016-09-28T15:17:39Z</time>
      </trkpt>
      <trkpt lat="43.25107" lon="-1.07831">
        <ele>137.908</ele>
        <time>2016-09-28T15:18:19Z</time>
      </trkpt>
      <trkpt lat="43.25001" lon="-1.07861">
        <ele>145.991</ele>
        <time>2016-09-28T15:18:59Z</time>
      </trkpt>
      <trkpt lat="43.24933" lon="-1.0791">
        <ele>153.848</ele>
        <time>2016-09-28T15:19:39Z</time>
      </trkpt>
      <trkpt lat="43.2483" lon="-1.07929">
        <ele>162.198</ele>
        <time>2016-09-28T15:20:19Z</time>
      </trkpt>
      <trkpt lat="43.2471" lon="-1.08035">
        <ele>158.399</ele>
        <time>2016-09-28T15:20:59Z</time>
      </trkpt>
      <trkpt lat="43.24649" lon="-1.08159">
        <ele>156.598</ele>
        <time>2016-09-28T15:21:39Z</time>
      </trkpt>
      <trkpt lat="43.2464" lon="-1.08249">
        <ele>157.21</ele>
        <time>2016-09-28T15:22:19Z</time>
      </trkpt>
      <trkpt lat="43.24608" lon="-1.08352">
        <ele>148.651</ele>
        <time>2016-09-28T15:22:59Z</time>
      </trkpt>
      <trkpt lat="43.24597" lon="-1.08414">
        <ele>147.553</ele>
        <time>2016-09-28T15:23:39Z</time>
      </trkpt>
      <trkpt lat="43.24543" lon="-1.08492">
        <ele>146.515</ele>
        <time>2016-09-28T15:24:19Z</time>
      </trkpt>
      <trkpt lat="43.24441" lon="-1.08588">
        <ele>150.065</ele>
        <time>2016-09-28T15:24:59Z</time>
      </trkpt>
      <trkpt lat="43.24368" lon="-1.08698">
        <ele>145.211</ele>
        <time>2016-09-28T15:25:39Z</time>
      </trkpt>
      <trkpt lat="43.24274" lon="-1.08796">
        <ele>145.008</ele>
        <time>2016-09-28T15:26:19Z</time>
      </trkpt>
      <trkpt lat="43.2421" lon="-1.08835">
        <ele>146.147</ele>
        <time>2016-09-28T15:26:59Z</time>
      </trkpt>
      <trkpt lat="43.24127" lon="-1.08914">
        <ele>148.924</ele>
        <time>2016-09-28T15:27:39Z</time>
      </trkpt>
      <trkpt lat="43.24035" lon="-1.08953">
        <ele>150.844</ele>
        <time>2016-09-28T15:28:19Z</time>
      </trkpt>
      <trkpt lat="43.23971" lon="-1.08944">
        <ele>151.045</ele>
        <time>2016-09-28T15:28:59Z</time>
      </trkpt>
      <trkpt lat="43.23889" lon="-1.08974">
        <ele>152.154</ele>
        <time>2016-09-28T15:29:39Z</time>
      </trkpt>
      <trkpt lat="43.23786" lon="-1.08743">
        <ele>146.046</ele>
        <time>2016-09-28T15:30:19Z</time>
      </trkpt>
      <trkpt lat="43.23552" lon="-1.09185">
        <ele>152.457</ele>
        <time>2016-09-28T15:30:59Z</time>
      </trkpt>
      <trkpt lat="43.23589" lon="-1.09301">
        <ele>159.659</ele>
        <time>2016-09-28T15:31:39Z</time>
      </trkpt>
      <trkpt lat="43.23469" lon="-1.09494">
        <ele>159.634</ele>
        <time>2016-09-28T15:32:19Z</time>
      </trkpt>
      <trkpt lat="43.23459" lon="-1.09554">
        <ele>163.455</ele>
        <time>2016-09-28T15:32:59Z</time>
      </trkpt>
      <trkpt lat="43.23442" lon="-1.0961">
        <ele>166.81</ele>
        <time>2016-09-28T15:33:39Z</time>
      </trkpt>
      <trkpt lat="43.23472" lon="-1.09912">
        <ele>182.708</ele>
        <time>2016-09-28T15:34:19Z</time>
      </trkpt>
      <trkpt lat="43.23394" lon="-1.1003">
        <ele>177.799</ele>
        <time>2016-09-28T15:34:59Z</time>
      </trkpt>
      <trkpt lat="43.23316" lon="-1.10107">
        <ele>178.556</ele>
        <time>2016-09-28T15:35:39Z</time>
      </trkpt>
      <trkpt lat="43.23162" lon="-1.10187">
        <ele>173.196</ele>
        <time>2016-09-28T15:36:19Z</time>
      </trkpt>
      <trkpt lat="43.23117" lon="-1.10238">
        <ele>168.847</ele>
        <time>2016-09-28T15:36:59Z</time>
      </trkpt>
      <trkpt lat="43.231" lon="-1.1024">
        <ele>167.396</ele>
        <time>2016-09-28T15:37:39Z</time>
      </trkpt>
      <trkpt lat="43.2305" lon="-1.10391">
        <ele>159.718</ele>
        <time>2016-09-28T15:38:19Z</time>
      </trkpt>
      <trkpt lat="43.22998" lon="-1.10644">
        <ele>152.249</ele>
        <time>2016-09-28T15:38:59Z</time>
      </trkpt>
      <trkpt lat="43.22883" lon="-1.10856">
        <ele>165.891</ele>
        <time>2016-09-28T15:39:39Z</time>
      </trkpt>
      <trkpt lat="43.22862" lon="-1.10931">
        <ele>170.677</ele>
        <time>2016-09-28T15:40:19Z</time>
      </trkpt>
      <trkpt lat="43.22831" lon="-1.10938">
        <ele>169.261</ele>
        <time>2016-09-28T15:40:59Z</time>
      </trkpt>
      <trkpt lat="43.22737" lon="-1.11161">
        <ele>170.527</ele>
        <time>2016-09-28T15:41:39Z</time>
      </trkpt>
      <trkpt lat="43.22731" lon="-1.11285">
        <ele>173.808</ele>
        <time>2016-09-28T15:42:19Z</time>
      </trkpt>
      <trkpt lat="43.22703" lon="-1.11307">
        <ele>174.153</ele>
        <time>2016-09-28T15:42:59Z</time>
      </trkpt>
      <trkpt lat="43.22598" lon="-1.11493">
        <ele>183.34</ele>
        <time>2016-09-28T15:43:39Z</time>
      </trkpt>
      <trkpt lat="43.22579" lon="-1.11624">
        <ele>184.72</ele>
        <time>2016-09-28T15:44:19Z</time>
      </trkpt>
      <trkpt lat="43.22503" lon="-1.1168">
        <ele>177.631</ele>
        <time>2016-09-28T15:44:59Z</time>
      </trkpt>
      <trkpt lat="43.22489" lon="-1.11972">
        <ele>177.27</ele>
        <time>2016-09-28T15:45:39Z</time>
      </trkpt>
      <trkpt lat="43.22407" lon="-1.11972">
        <ele>171.652</ele>
        <time>2016-09-28T15:46:19Z</time>
      </trkpt>
      <trkpt lat="43.22317" lon="-1.11931">
        <ele>173.743</ele>
        <time>2016-09-28T15:46:59Z</time>
      </trkpt>
      <trkpt lat="43.22282" lon="-1.11893">
        <ele>173.375</ele>
        <time>2016-09-28T15:47:39Z</time>
      </trkpt>
      <trkpt lat="43.22202" lon="-1.11867">
        <ele>174.766</ele>
        <time>2016-09-28T15:48:19Z</time>
      </trkpt>
      <trkpt lat="43.22141" lon="-1.11895">
        <ele>171.929</ele>
        <time>2016-09-28T15:48:59Z</time>
      </trkpt>
      <trkpt lat="43.22037" lon="-1.12064">
        <ele>172.221</ele>
        <time>2016-09-28T15:49:39Z</time>
      </trkpt>
      <trkpt lat="43.21829" lon="-1.123">
        <ele>178.708</ele>
        <time>2016-09-28T15:50:19Z</time>
      </trkpt>
      <trkpt lat="43.21846" lon="-1.12343">
        <ele>181.882</ele>
        <time>2016-09-28T15:50:59Z</time>
      </trkpt>
      <trkpt lat="43.21751" lon="-1.12371">
        <ele>188.919</ele>
        <time>2016-09-28T15:51:39Z</time>
      </trkpt>
      <trkpt lat="43.21658" lon="-1.12478">
        <ele>193.119</ele>
        <time>2016-09-28T15:52:19Z</time>
      </trkpt>
      <trkpt lat="43.2163" lon="-1.12541">
        <ele>197.64</ele>
        <time>2016-09-28T15:52:59Z</time>
      </trkpt>
      <trkpt lat="43.21561" lon="-1.12601">
        <ele>198.959</ele>
        <time>2016-09-28T15:53:39Z</time>
      </trkpt>
      <trkpt lat="43.21525" lon="-1.1268">
        <ele>204.011</ele>
        <time>2016-09-28T15:54:19Z</time>
      </trkpt>
      <trkpt lat="43.21519" lon="-1.12828">
        <ele>209.352</ele>
        <time>2016-09-28T15:54:59Z</time>
      </trkpt>
      <trkpt lat="43.21474" lon="-1.12843">
        <ele>213.744</ele>
        <time>2016-09-28T15:55:39Z</time>
      </trkpt>
      <trkpt lat="43.21391" lon="-1.12985">
        <ele>220.525</ele>
        <time>2016-09-28T15:56:19Z</time>
      </trkpt>
      <trkpt lat="43.21385" lon="-1.13163">
        <ele>233.826</ele>
        <time>2016-09-28T15:56:59Z</time>
      </trkpt>
      <trkpt lat="43.21333" lon="-1.13386">
        <ele>229.708</ele>
        <time>2016-09-28T15:57:39Z</time>
      </trkpt>
      <trkpt lat="43.21208" lon="-1.13586">
        <ele>249.508</ele>
        <time>2016-09-28T15:58:19Z</time>
      </trkpt>
      <trkpt lat="43.21111" lon="-1.13676">
        <ele>264.788</ele>
        <time>2016-09-28T15:58:59Z</time>
      </trkpt>
      <trkpt lat="43.21037" lon="-1.13777">
        <ele>260.745</ele>
        <time>2016-09-28T15:59:39Z</time>
      </trkpt>
      <trkpt lat="43.20992" lon="-1.13772">
        <ele>260.115</ele>
        <time>2016-09-28T16:00:19Z</time>
      </trkpt>
      <trkpt lat="43.20834" lon="-1.13835">
        <ele>262.996</ele>
        <time>2016-09-28T16:00:59Z</time>
      </trkpt>
      <trkpt lat="43.20787" lon="-1.1388">
        <ele>262.455</ele>
        <time>2016-09-28T16:01:39Z</time>
      </trkpt>
      <trkpt lat="43.20698" lon="-1.13935">
        <ele>266.277</ele>
        <time>2016-09-28T16:02:19Z</time>
      </trkpt>
      <trkpt lat="43.20567" lon="-1.13953">
        <ele>263.878</ele>
        <time>2016-09-28T16:02:59Z</time>
      </trkpt>
      <trkpt lat="43.20435" lon="-1.13991">
        <ele>257.35</ele>
        <time>2016-09-28T16:03:39Z</time>
      </trkpt>
      <trkpt lat="43.20368" lon="-1.14094">
        <ele>250.272</ele>
        <time>2016-09-28T16:04:19Z</time>
      </trkpt>
      <trkpt lat="43.20318" lon="-1.14133">
        <ele>242.313</ele>
        <time>2016-09-28T16:04:59Z</time>
      </trkpt>
      <trkpt lat="43.20305" lon="-1.14081">
        <ele>237.914</ele>
        <time>2016-09-28T16:05:39Z</time>
      </trkpt>
      <trkpt lat="43.20282" lon="-1.14094">
        <ele>233.808</ele>
        <time>2016-09-28T16:06:19Z</time>
      </trkpt>
      <trkpt lat="43.20262" lon="-1.1415">
        <ele>231.693</ele>
        <time>2016-09-28T16:06:59Z</time>
      </trkpt>
      <trkpt lat="43.20166" lon="-1.1424">
        <ele>227.62</ele>
        <time>2016-09-28T16:07:39Z</time>
      </trkpt>
      <trkpt lat="43.20199" lon="-1.14332">
        <ele>233.44</ele>
        <time>2016-09-28T16:08:19Z</time>
      </trkpt>
      <trkpt lat="43.20166" lon="-1.14375">
        <ele>234.541</ele>
        <time>2016-09-28T16:08:59Z</time>
      </trkpt>
      <trkpt lat="43.20072" lon="-1.14412">
        <ele>233.81</ele>
        <time>2016-09-28T16:09:39Z</time>
      </trkpt>
      <trkpt lat="43.20055" lon="-1.14446">
        <ele>234.162</ele>
        <time>2016-09-28T16:10:19Z</time>
      </trkpt>
      <trkpt lat="43.20004" lon="-1.1451">
        <ele>233.323</ele>
        <time>2016-09-28T16:10:59Z</time>
      </trkpt>
      <trkpt lat="43.19979" lon="-1.14641">
        <ele>238.875</ele>
        <time>2016-09-28T16:11:39Z</time>
      </trkpt>
      <trkpt lat="43.19905" lon="-1.1477">
        <ele>237.387</ele>
        <time>2016-09-28T16:12:19Z</time>
      </trkpt>
      <trkpt lat="43.19878" lon="-1.14905">
        <ele>235.542</ele>
        <time>2016-09-28T16:12:59Z</time>
      </trkpt>
      <trkpt lat="43.19838" lon="-1.15006">
        <ele>230.326</ele>
        <time>2016-09-28T16:13:39Z</time>
      </trkpt>
      <trkpt lat="43.19869" lon="-1.15137">
        <ele>231.908</ele>
        <time>2016-09-28T16:14:19Z</time>
      </trkpt>
      <trkpt lat="43.1981" lon="-1.15264">
        <ele>230.074</ele>
        <time>2016-09-28T16:14:59Z</time>
      </trkpt>
      <trkpt lat="43.19788" lon="-1.15379">
        <ele>228.981</ele>
        <time>2016-09-28T16:15:39Z</time>
      </trkpt>
      <trkpt lat="43.19733" lon="-1.15356">
        <ele>224.841</ele>
        <time>2016-09-28T16:16:19Z</time>
      </trkpt>
      <trkpt lat="43.19672" lon="-1.15227">
        <ele>220.012</ele>
        <time>2016-09-28T16:16:59Z</time>
      </trkpt>
      <trkpt lat="43.19631" lon="-1.15197">
        <ele>218.221</ele>
        <time>2016-09-28T16:17:39Z</time>
      </trkpt>
      <trkpt lat="43.19577" lon="-1.15081">
        <ele>217.053</ele>
        <time>2016-09-28T16:18:19Z</time>
      </trkpt>
      <trkpt lat="43.19473" lon="-1.15053">
        <ele>218.094</ele>
        <time>2016-09-28T16:18:59Z</time>
      </trkpt>
      <trkpt lat="43.19415" lon="-1.14976">
        <ele>225.736</ele>
        <time>2016-09-28T16:19:39Z</time>
      </trkpt>
      <trkpt lat="43.19356" lon="-1.14933">
        <ele>227.265</ele>
        <time>2016-09-28T16:20:19Z</time>
      </trkpt>
      <trkpt lat="43.19221" lon="-1.15204">
        <ele>222.068</ele>
        <time>2016-09-28T16:20:59Z</time>
      </trkpt>
      <trkpt lat="43.19214" lon="-1.15249">
        <ele>220.714</ele>
        <time>2016-09-28T16:21:39Z</time>
      </trkpt>
      <trkpt lat="43.19153" lon="-1.15294">
        <ele>217.708</ele>
        <time>2016-09-28T16:22:19Z</time>
      </trkpt>
      <trkpt lat="43.19104" lon="-1.15296">
        <ele>221.112</ele>
        <time>2016-09-28T16:22:59Z</time>
      </trkpt>
      <trkpt lat="43.1907" lon="-1.15433">
        <ele>224.529</ele>
        <time>2016-09-28T16:23:39Z</time>
      </trkpt>
      <trkpt lat="43.19013" lon="-1.15478">
        <ele>226.969</ele>
        <time>2016-09-28T16:24:19Z</time>
      </trkpt>
      <trkpt lat="43.18926" lon="-1.15575">
        <ele>212.06</ele>
        <time>2016-09-28T16:24:59Z</time>
      </trkpt>
      <trkpt lat="43.1888" lon="-1.15538">
        <ele>215.169</ele>
        <time>2016-09-28T16:25:39Z</time>
      </trkpt>
      <trkpt lat="43.18779" lon="-1.15785">
        <ele>213.741</ele>
        <time>2016-09-28T16:26:19Z</time>
      </trkpt>
      <trkpt lat="43.18754" lon="-1.15817">
        <ele>213.012</ele>
        <time>2016-09-28T16:26:59Z</time>
      </trkpt>
      <trkpt lat="43.18732" lon="-1.15912">
        <ele>209.264</ele>
        <time>2016-09-28T16:27:39Z</time>
      </trkpt>
      <trkpt lat="43.18669" lon="-1.15894">
        <ele>209.814</ele>
        <time>2016-09-28T16:28:19Z</time>
      </trkpt>
      <trkpt lat="43.18628" lon="-1.15918">
        <ele>211.154</ele>
        <time>2016-09-28T16:28:59Z</time>
      </trkpt>
      <trkpt lat="43.18613" lon="-1.1597">
        <ele>211.809</ele>
        <time>2016-09-28T16:29:39Z</time>
      </trkpt>
      <trkpt lat="43.18527" lon="-1.15952">
        <ele>221.308</ele>
        <time>2016-09-28T16:30:19Z</time>
      </trkpt>
      <trkpt lat="43.18472" lon="-1.15985">
        <ele>225.577</ele>
        <time>2016-09-28T16:30:59Z</time>
      </trkpt>
      <trkpt lat="43.18489" lon="-1.16043">
        <ele>225.894</ele>
        <time>2016-09-28T16:31:39Z</time>
      </trkpt>
      <trkpt lat="43.18422" lon="-1.16246">
        <ele>233.544</ele>
        <time>2016-09-28T16:32:19Z</time>
      </trkpt>
      <trkpt lat="43.18386" lon="-1.16279">
        <ele>239.695</ele>
        <time>2016-09-28T16:32:59Z</time>
      </trkpt>
      <trkpt lat="43.18361" lon="-1.16321">
        <ele>238.514</ele>
        <time>2016-09-28T16:33:39Z</time>
      </trkpt>
      <trkpt lat="43.18367" lon="-1.16386">
        <ele>233.316</ele>
        <time>2016-09-28T16:34:19Z</time>
      </trkpt>
      <trkpt lat="43.18337" lon="-1.16525">
        <ele>230.897</ele>
        <time>2016-09-28T16:34:59Z</time>
      </trkpt>
      <trkpt lat="43.18336" lon="-1.166">
        <ele>224.539</ele>
        <time>2016-09-28T16:35:39Z</time>
      </trkpt>
      <trkpt lat="43.18308" lon="-1.16658">
        <ele>227.382</ele>
        <time>2016-09-28T16:36:19Z</time>
      </trkpt>
      <trkpt lat="43.18308" lon="-1.16718">
        <ele>221.143</ele>
        <time>2016-09-28T16:36:59Z</time>
      </trkpt>
      <trkpt lat="43.18295" lon="-1.16772">
        <ele>218.317</ele>
        <time>2016-09-28T16:37:39Z</time>
      </trkpt>
      <trkpt lat="43.18322" lon="-1.16839">
        <ele>212.508</ele>
        <time>2016-09-28T16:38:19Z</time>
      </trkpt>
      <trkpt lat="43.18294" lon="-1.16892">
        <ele>209.774</ele>
        <time>2016-09-28T16:38:59Z</time>
      </trkpt>
      <trkpt lat="43.18345" lon="-1.16995">
        <ele>199.051</ele>
        <time>2016-09-28T16:39:39Z</time>
      </trkpt>
      <trkpt lat="43.18258" lon="-1.16963">
        <ele>204.821</ele>
        <time>2016-09-28T16:40:19Z</time>
      </trkpt>
      <trkpt lat="43.18215" lon="-1.17008">
        <ele>211.332</ele>
        <time>2016-09-28T16:40:59Z</time>
      </trkpt>
      <trkpt lat="43.1814" lon="-1.17027">
        <ele>221.921</ele>
        <time>2016-09-28T16:41:39Z</time>
      </trkpt>
      <trkpt lat="43.18025" lon="-1.17034">
        <ele>243.253</ele>
        <time>2016-09-28T16:42:19Z</time>
      </trkpt>
      <trkpt lat="43.18007" lon="-1.17092">
        <ele>238.634</ele>
        <time>2016-09-28T16:42:59Z</time>
      </trkpt>
      <trkpt lat="43.17899" lon="-1.17124">
        <ele>247.056</ele>
        <time>2016-09-28T16:43:39Z</time>
      </trkpt>
      <trkpt lat="43.17832" lon="-1.17285">
        <ele>249.623</ele>
        <time>2016-09-28T16:44:19Z</time>
      </trkpt>
      <trkpt lat="43.17687" lon="-1.17261">
        <ele>264.783</ele>
        <time>2016-09-28T16:44:59Z</time>
      </trkpt>
      <trkpt lat="43.17572" lon="-1.17298">
        <ele>275.611</ele>
        <time>2016-09-28T16:45:39Z</time>
      </trkpt>
      <trkpt lat="43.17427" lon="-1.17242">
        <ele>253.308</ele>
        <time>2016-09-28T16:46:19Z</time>
      </trkpt>
      <trkpt lat="43.17403" lon="-1.17206">
        <ele>248.358</ele>
        <time>2016-09-28T16:46:59Z</time>
      </trkpt>
      <trkpt lat="43.1738" lon="-1.17199">
        <ele>244.345</ele>
        <time>2016-09-28T16:47:39Z</time>
      </trkpt>
      <trkpt lat="43.17361" lon="-1.17255">
        <ele>243.885</ele>
        <time>2016-09-28T16:48:19Z</time>
      </trkpt>
      <trkpt lat="43.17295" lon="-1.17246">
        <ele>233.716</ele>
        <time>2016-09-28T16:48:59Z</time>
      </trkpt>
      <trkpt lat="43.17081" lon="-1.17055">
        <ele>220.075</ele>
        <time>2016-09-28T16:49:39Z</time>
      </trkpt>
      <trkpt lat="43.16995" lon="-1.17081">
        <ele>220.617</ele>
        <time>2016-09-28T16:50:19Z</time>
      </trkpt>
      <trkpt lat="43.1687" lon="-1.1712">
        <ele>220.028</ele>
        <time>2016-09-28T16:50:59Z</time>
      </trkpt>
      <trkpt lat="43.16816" lon="-1.17115">
        <ele>220.07</ele>
        <time>2016-09-28T16:51:39Z</time>
      </trkpt>
      <trkpt lat="43.16693" lon="-1.17186">
        <ele>219.931</ele>
        <time>2016-09-28T16:52:19Z</time>
      </trkpt>
      <trkpt lat="43.16677" lon="-1.1721">
        <ele>219.061</ele>
        <time>2016-09-28T16:52:59Z</time>
      </trkpt>
      <trkpt lat="43.1664" lon="-1.17221">
        <ele>216.107</ele>
        <time>2016-09-28T16:53:39Z</time>
      </trkpt>
      <trkpt lat="43.16496" lon="-1.17296">
        <ele>211.008</ele>
        <time>2016-09-28T16:54:19Z</time>
      </trkpt>
      <trkpt lat="43.16474" lon="-1.17332">
        <ele>210.029</ele>
        <time>2016-09-28T16:54:59Z</time>
      </trkpt>
      <trkpt lat="43.16347" lon="-1.17414">
        <ele>210.076</ele>
        <time>2016-09-28T16:55:39Z</time>
      </trkpt>
      <trkpt lat="43.16045" lon="-1.17995">
        <ele>205.296</ele>
        <time>2016-09-28T16:56:19Z</time>
      </trkpt>
      <trkpt lat="43.16086" lon="-1.1819">
        <ele>208.687</ele>
        <time>2016-09-28T16:56:59Z</time>
      </trkpt>
      <trkpt lat="43.16153" lon="-1.18216">
        <ele>208.516</ele>
        <time>2016-09-28T16:57:39Z</time>
      </trkpt>
      <trkpt lat="43.16239" lon="-1.18523">
        <ele>220.058</ele>
        <time>2016-09-28T16:58:19Z</time>
      </trkpt>
      <trkpt lat="43.16319" lon="-1.1865">
        <ele>218.539</ele>
        <time>2016-09-28T16:58:59Z</time>
      </trkpt>
      <trkpt lat="43.16431" lon="-1.18935">
        <ele>207.781</ele>
        <time>2016-09-28T16:59:39Z</time>
      </trkpt>
      <trkpt lat="43.16444" lon="-1.19049">
        <ele>205.052</ele>
        <time>2016-09-28T17:00:19Z</time>
      </trkpt>
      <trkpt lat="43.16466" lon="-1.19115">
        <ele>204.053</ele>
        <time>2016-09-28T17:00:59Z</time>
      </trkpt>
      <trkpt lat="43.16427" lon="-1.1919">
        <ele>203.108</ele>
        <time>2016-09-28T17:01:39Z</time>
      </trkpt>
      <trkpt lat="43.16438" lon="-1.19332">
        <ele>200.008</ele>
        <time>2016-09-28T17:02:19Z</time>
      </trkpt>
      <trkpt lat="43.16588" lon="-1.19424">
        <ele>200.071</ele>
        <time>2016-09-28T17:02:59Z</time>
      </trkpt>
      <trkpt lat="43.16643" lon="-1.19489">
        <ele>200.088</ele>
        <time>2016-09-28T17:03:39Z</time>
      </trkpt>
      <trkpt lat="43.1666" lon="-1.19553">
        <ele>200.098</ele>
        <time>2016-09-28T17:04:19Z</time>
      </trkpt>
      <trkpt lat="43.16679" lon="-1.19684">
        <ele>200.019</ele>
        <time>2016-09-28T17:04:59Z</time>
      </trkpt>
      <trkpt lat="43.16708" lon="-1.19705">
        <ele>200.038</ele>
        <time>2016-09-28T17:05:39Z</time>
      </trkpt>
      <trkpt lat="43.16716" lon="-1.19858">
        <ele>200.07</ele>
        <time>2016-09-28T17:06:19Z</time>
      </trkpt>
      <trkpt lat="43.16743" lon="-1.20019">
        <ele>199.321</ele>
        <time>2016-09-28T17:06:59Z</time>
      </trkpt>
      <trkpt lat="43.16779" lon="-1.20051">
        <ele>199.233</ele>
        <time>2016-09-28T17:07:39Z</time>
      </trkpt>
      <trkpt lat="43.16765" lon="-1.201">
        <ele>198.033</ele>
        <time>2016-09-28T17:08:19Z</time>
      </trkpt>
      <trkpt lat="43.16784" lon="-1.20212">
        <ele>195.923</ele>
        <time>2016-09-28T17:08:59Z</time>
      </trkpt>
      <trkpt lat="43.16848" lon="-1.20409">
        <ele>193.015</ele>
        <time>2016-09-28T17:09:39Z</time>
      </trkpt>
      <trkpt lat="43.16898" lon="-1.20497">
        <ele>192.008</ele>
        <time>2016-09-28T17:10:19Z</time>
      </trkpt>
      <trkpt lat="43.1681" lon="-1.20654">
        <ele>190.029</ele>
        <time>2016-09-28T17:10:59Z</time>
      </trkpt>
      <trkpt lat="43.16768" lon="-1.20851">
        <ele>184.946</ele>
        <time>2016-09-28T17:11:39Z</time>
      </trkpt>
      <trkpt lat="43.16753" lon="-1.20993">
        <ele>183.016</ele>
        <time>2021-01-03T23:14:40Z</time>
      </trkpt>
      <trkpt lat="43.1672" lon="-1.21025">
        <ele>182.187</ele>
        <time>2021-01-03T23:15:00Z</time>
      </trkpt>
      <trkpt lat="43.16715" lon="-1.2106">
        <ele>182.026</ele>
        <time>2021-01-03T23:15:20Z</time>
      </trkpt>
      <trkpt lat="43.16676" lon="-1.21069">
        <ele>180.568</ele>
        <time>2021-01-03T23:15:40Z</time>
      </trkpt>
      <trkpt lat="43.16668" lon="-1.21012">
        <ele>181.059</ele>
        <time>2021-01-03T23:16:00Z</time>
      </trkpt>
      <trkpt lat="43.16533" lon="-1.21087">
        <ele>179.951</ele>
        <time>2016-09-28T17:13:39Z</time>
      </trkpt>
      <trkpt lat="43.16574" lon="-1.21388">
        <ele>174.037</ele>
        <time>2016-09-28T17:14:19Z</time>
      </trkpt>
      <trkpt lat="43.16618" lon="-1.21568">
        <ele>170.849</ele>
        <time>2016-09-28T17:14:59Z</time>
      </trkpt>
      <trkpt lat="43.16626" lon="-1.21697">
        <ele>170.013</ele>
        <time>2016-09-28T17:15:39Z</time>
      </trkpt>
      <trkpt lat="43.16563" lon="-1.21808">
        <ele>168.308</ele>
        <time>2016-09-28T17:16:19Z</time>
      </trkpt>
      <trkpt lat="43.16491" lon="-1.21903">
        <ele>167.059</ele>
        <time>2016-09-28T17:16:59Z</time>
      </trkpt>
      <trkpt lat="43.16472" lon="-1.22066">
        <ele>165.696</ele>
        <time>2016-09-28T17:17:39Z</time>
      </trkpt>
      <trkpt lat="43.16425" lon="-1.22265">
        <ele>166.266</ele>
        <time>2016-09-28T17:18:19Z</time>
      </trkpt>
      <trkpt lat="43.16431" lon="-1.22312">
        <ele>166.547</ele>
        <time>2016-09-28T17:18:59Z</time>
      </trkpt>
      <trkpt lat="43.16414" lon="-1.22403">
        <ele>168.116</ele>
        <time>2016-09-28T17:19:39Z</time>
      </trkpt>
      <trkpt lat="43.164" lon="-1.22424">
        <ele>169.598</ele>
        <time>2016-09-28T17:20:19Z</time>
      </trkpt>
      <trkpt lat="43.16327" lon="-1.22806">
        <ele>176.029</ele>
        <time>2016-09-28T17:20:59Z</time>
      </trkpt>
      <trkpt lat="43.16275" lon="-1.22911">
        <ele>177.141</ele>
        <time>2016-09-28T17:21:39Z</time>
      </trkpt>
      <trkpt lat="43.16237" lon="-1.23084">
        <ele>197.269</ele>
        <time>2016-09-28T17:22:19Z</time>
      </trkpt>
      <trkpt lat="43.16239" lon="-1.23133">
        <ele>200.904</ele>
        <time>2016-09-28T17:22:59Z</time>
      </trkpt>
      <trkpt lat="43.16366" lon="-1.23423">
        <ele>185.524</ele>
        <time>2016-09-28T17:23:39Z</time>
      </trkpt>
      <trkpt lat="43.16367" lon="-1.23489">
        <ele>182.408</ele>
        <time>2016-09-28T17:24:19Z</time>
      </trkpt>
      <trkpt lat="43.16341" lon="-1.23586">
        <ele>175.832</ele>
        <time>2016-09-28T17:24:59Z</time>
      </trkpt>
      <trkpt lat="43.16281" lon="-1.23698">
        <ele>164.879</ele>
        <time>2016-09-28T17:25:39Z</time>
      </trkpt>
      <trkpt lat="43.15965" lon="-1.23882">
        <ele>182.569</ele>
        <time>2016-09-28T17:26:19Z</time>
      </trkpt>
      <trkpt lat="43.15907" lon="-1.23886">
        <ele>187.25</ele>
        <time>2016-09-28T17:26:59Z</time>
      </trkpt>
      <trkpt lat="43.1584" lon="-1.23938">
        <ele>198.539</ele>
        <time>2016-09-28T17:27:39Z</time>
      </trkpt>
      <trkpt lat="43.15627" lon="-1.24017">
        <ele>223.051</ele>
        <time>2016-09-28T17:28:19Z</time>
      </trkpt>
      <trkpt lat="43.15538" lon="-1.24099">
        <ele>230.272</ele>
        <time>2016-09-28T17:28:59Z</time>
      </trkpt>
      <trkpt lat="43.1538" lon="-1.24174">
        <ele>258.164</ele>
        <time>2016-09-28T17:29:39Z</time>
      </trkpt>
      <trkpt lat="43.15195" lon="-1.24225">
        <ele>248.658</ele>
        <time>2016-09-28T17:30:19Z</time>
      </trkpt>
      <trkpt lat="43.15121" lon="-1.24275">
        <ele>248.152</ele>
        <time>2016-09-28T17:30:59Z</time>
      </trkpt>
      <trkpt lat="43.15041" lon="-1.24279">
        <ele>249.517</ele>
        <time>2016-09-28T17:31:39Z</time>
      </trkpt>
      <trkpt lat="43.14948" lon="-1.24251">
        <ele>250.008</ele>
        <time>2016-09-28T17:32:19Z</time>
      </trkpt>
      <trkpt lat="43.14841" lon="-1.24247">
        <ele>250.221</ele>
        <time>2016-09-28T17:32:59Z</time>
      </trkpt>
      <trkpt lat="43.14758" lon="-1.24258">
        <ele>259.328</ele>
        <time>2016-09-28T17:33:39Z</time>
      </trkpt>
      <trkpt lat="43.14674" lon="-1.24228">
        <ele>270.298</ele>
        <time>2016-09-28T17:34:19Z</time>
      </trkpt>
      <trkpt lat="43.14506" lon="-1.24047">
        <ele>281.349</ele>
        <time>2016-09-28T17:34:59Z</time>
      </trkpt>
      <trkpt lat="43.14422" lon="-1.24009">
        <ele>287.988</ele>
        <time>2016-09-28T17:35:39Z</time>
      </trkpt>
      <trkpt lat="43.14263" lon="-1.24157">
        <ele>302.41</ele>
        <time>2016-09-28T17:36:19Z</time>
      </trkpt>
      <trkpt lat="43.14121" lon="-1.24137">
        <ele>314.021</ele>
        <time>2016-09-28T17:36:59Z</time>
      </trkpt>
      <trkpt lat="43.13996" lon="-1.24045">
        <ele>316.153</ele>
        <time>2016-09-28T17:37:39Z</time>
      </trkpt>
      <trkpt lat="43.13867" lon="-1.23914">
        <ele>318.691</ele>
        <time>2016-09-28T17:38:19Z</time>
      </trkpt>
      <trkpt lat="43.13747" lon="-1.23891">
        <ele>310.081</ele>
        <time>2016-09-28T17:38:59Z</time>
      </trkpt>
      <trkpt lat="43.13643" lon="-1.23816">
        <ele>312.919</ele>
        <time>2016-09-28T17:39:39Z</time>
      </trkpt>
      <trkpt lat="43.13465" lon="-1.23811">
        <ele>315.308</ele>
        <time>2016-09-28T17:40:19Z</time>
      </trkpt>
      <trkpt lat="43.13405" lon="-1.23897">
        <ele>319.065</ele>
        <time>2016-09-28T17:40:59Z</time>
      </trkpt>
      <trkpt lat="43.13354" lon="-1.23889">
        <ele>320.342</ele>
        <time>2016-09-28T17:41:39Z</time>
      </trkpt>
      <trkpt lat="43.13304" lon="-1.23831">
        <ele>319.822</ele>
        <time>2016-09-28T17:42:19Z</time>
      </trkpt>
      <trkpt lat="43.13244" lon="-1.2385">
        <ele>329.183</ele>
        <time>2016-09-28T17:42:59Z</time>
      </trkpt>
      <trkpt lat="43.13175" lon="-1.23921">
        <ele>337.782</ele>
        <time>2016-09-28T17:43:39Z</time>
      </trkpt>
      <trkpt lat="43.13133" lon="-1.2394">
        <ele>332.644</ele>
        <time>2016-09-28T17:44:19Z</time>
      </trkpt>
      <trkpt lat="43.1308" lon="-1.24026">
        <ele>339.575</ele>
        <time>2016-09-28T17:44:59Z</time>
      </trkpt>
      <trkpt lat="43.13055" lon="-1.24116">
        <ele>349.057</ele>
        <time>2016-09-28T17:45:39Z</time>
      </trkpt>
      <trkpt lat="43.12981" lon="-1.24167">
        <ele>347.368</ele>
        <time>2016-09-28T17:46:19Z</time>
      </trkpt>
      <trkpt lat="43.12947" lon="-1.24279">
        <ele>357.942</ele>
        <time>2016-09-28T17:46:59Z</time>
      </trkpt>
      <trkpt lat="43.1299" lon="-1.24421">
        <ele>374.626</ele>
        <time>2016-09-28T17:47:39Z</time>
      </trkpt>
      <trkpt lat="43.13051" lon="-1.24543">
        <ele>385.608</ele>
        <time>2016-09-28T17:48:19Z</time>
      </trkpt>
      <trkpt lat="43.12936" lon="-1.24472">
        <ele>399.552</ele>
        <time>2016-09-28T17:48:59Z</time>
      </trkpt>
      <trkpt lat="43.12793" lon="-1.24421">
        <ele>422.689</ele>
        <time>2016-09-28T17:49:39Z</time>
      </trkpt>
      <trkpt lat="43.12665" lon="-1.24434">
        <ele>445.099</ele>
        <time>2016-09-28T17:50:19Z</time>
      </trkpt>
      <trkpt lat="43.12583" lon="-1.24464">
        <ele>463.24</ele>
        <time>2016-09-28T17:50:59Z</time>
      </trkpt>
      <trkpt lat="43.12489" lon="-1.24474">
        <ele>479.219</ele>
        <time>2016-09-28T17:51:39Z</time>
      </trkpt>
      <trkpt lat="43.12414" lon="-1.24507">
        <ele>493.711</ele>
        <time>2016-09-28T17:52:19Z</time>
      </trkpt>
      <trkpt lat="43.12298" lon="-1.24464">
        <ele>516.982</ele>
        <time>2016-09-28T17:52:59Z</time>
      </trkpt>
      <trkpt lat="43.12231" lon="-1.24404">
        <ele>529.194</ele>
        <time>2016-09-28T17:53:39Z</time>
      </trkpt>
      <trkpt lat="43.12113" lon="-1.24335">
        <ele>555.225</ele>
        <time>2016-09-28T17:54:19Z</time>
      </trkpt>
      <trkpt lat="43.12052" lon="-1.24195">
        <ele>581.326</ele>
        <time>2016-09-28T17:54:59Z</time>
      </trkpt>
      <trkpt lat="43.12038" lon="-1.24245">
        <ele>582.208</ele>
        <time>2016-09-28T17:55:39Z</time>
      </trkpt>
      <trkpt lat="43.11997" lon="-1.24266">
        <ele>594.108</ele>
        <time>2016-09-28T17:56:19Z</time>
      </trkpt>
      <trkpt lat="43.11988" lon="-1.24204">
        <ele>603.748</ele>
        <time>2016-09-28T17:56:59Z</time>
      </trkpt>
      <trkpt lat="43.12004" lon="-1.24079">
        <ele>623.555</ele>
        <time>2016-09-28T17:57:39Z</time>
      </trkpt>
      <trkpt lat="43.11897" lon="-1.24131">
        <ele>650.595</ele>
        <time>2016-09-28T17:58:19Z</time>
      </trkpt>
      <trkpt lat="43.1185" lon="-1.2412">
        <ele>655.656</ele>
        <time>2016-09-28T17:58:59Z</time>
      </trkpt>
      <trkpt lat="43.11891" lon="-1.24075">
        <ele>665.785</ele>
        <time>2016-09-28T17:59:39Z</time>
      </trkpt>
      <trkpt lat="43.11896" lon="-1.24024">
        <ele>670.337</ele>
        <time>2016-09-28T18:00:19Z</time>
      </trkpt>
      <trkpt lat="43.1188" lon="-1.23992">
        <ele>677.168</ele>
        <time>2016-09-28T18:00:59Z</time>
      </trkpt>
      <trkpt lat="43.11836" lon="-1.24007">
        <ele>687.97</ele>
        <time>2016-09-28T18:01:39Z</time>
      </trkpt>
      <trkpt lat="43.11802" lon="-1.23987">
        <ele>695.396</ele>
        <time>2016-09-28T18:02:19Z</time>
      </trkpt>
      <trkpt lat="43.11813" lon="-1.23908">
        <ele>706.131</ele>
        <time>2016-09-28T18:02:59Z</time>
      </trkpt>
      <trkpt lat="43.11783" lon="-1.23837">
        <ele>719.924</ele>
        <time>2016-09-28T18:03:39Z</time>
      </trkpt>
      <trkpt lat="43.11725" lon="-1.23813">
        <ele>734.608</ele>
        <time>2016-09-28T18:04:19Z</time>
      </trkpt>
      <trkpt lat="43.1162" lon="-1.23768">
        <ele>754.635</ele>
        <time>2016-09-28T18:04:59Z</time>
      </trkpt>
      <trkpt lat="43.11501" lon="-1.23758">
        <ele>767.252</ele>
        <time>2016-09-28T18:05:39Z</time>
      </trkpt>
      <trkpt lat="43.11426" lon="-1.23768">
        <ele>782.922</ele>
        <time>2016-09-28T18:06:19Z</time>
      </trkpt>
      <trkpt lat="43.11313" lon="-1.23725">
        <ele>794.743</ele>
        <time>2016-09-28T18:06:59Z</time>
      </trkpt>
      <trkpt lat="43.11236" lon="-1.23721">
        <ele>796.832</ele>
        <time>2016-09-28T18:07:39Z</time>
      </trkpt>
      <trkpt lat="43.11108" lon="-1.23798">
        <ele>792.114</ele>
        <time>2016-09-28T18:08:19Z</time>
      </trkpt>
      <trkpt lat="43.10986" lon="-1.2382">
        <ele>786.675</ele>
        <time>2016-09-28T18:08:59Z</time>
      </trkpt>
      <trkpt lat="43.10931" lon="-1.23863">
        <ele>791.657</ele>
        <time>2016-09-28T18:09:39Z</time>
      </trkpt>
      <trkpt lat="43.10895" lon="-1.2391">
        <ele>794.832</ele>
        <time>2016-09-28T18:10:19Z</time>
      </trkpt>
      <trkpt lat="43.1079" lon="-1.23953">
        <ele>809.592</ele>
        <time>2016-09-28T18:10:59Z</time>
      </trkpt>
      <trkpt lat="43.10655" lon="-1.23938">
        <ele>822.011</ele>
        <time>2016-09-28T18:11:39Z</time>
      </trkpt>
      <trkpt lat="43.10641" lon="-1.23813">
        <ele>825.708</ele>
        <time>2016-09-28T18:12:19Z</time>
      </trkpt>
      <trkpt lat="43.1057" lon="-1.23781">
        <ele>838.399</ele>
        <time>2016-09-28T18:12:59Z</time>
      </trkpt>
      <trkpt lat="43.10429" lon="-1.23951">
        <ele>855.126</ele>
        <time>2016-09-28T18:13:39Z</time>
      </trkpt>
      <trkpt lat="43.10375" lon="-1.23989">
        <ele>858.366</ele>
        <time>2016-09-28T18:14:19Z</time>
      </trkpt>
      <trkpt lat="43.1031" lon="-1.23996">
        <ele>862.527</ele>
        <time>2016-09-28T18:14:59Z</time>
      </trkpt>
      <trkpt lat="43.10235" lon="-1.23981">
        <ele>871.196</ele>
        <time>2016-09-28T18:15:39Z</time>
      </trkpt>
      <trkpt lat="43.10119" lon="-1.24007">
        <ele>878.748</ele>
        <time>2016-09-28T18:16:19Z</time>
      </trkpt>
      <trkpt lat="43.09986" lon="-1.24062">
        <ele>888.869</ele>
        <time>2016-09-28T18:16:59Z</time>
      </trkpt>
      <trkpt lat="43.09765" lon="-1.2414">
        <ele>916.141</ele>
        <time>2016-09-28T18:17:39Z</time>
      </trkpt>
      <trkpt lat="43.09533" lon="-1.24243">
        <ele>947.068</ele>
        <time>2016-09-28T18:18:19Z</time>
      </trkpt>
      <trkpt lat="43.09436" lon="-1.24232">
        <ele>963.942</ele>
        <time>2016-09-28T18:18:59Z</time>
      </trkpt>
      <trkpt lat="43.09377" lon="-1.24249">
        <ele>968.526</ele>
        <time>2016-09-28T18:19:39Z</time>
      </trkpt>
      <trkpt lat="43.09254" lon="-1.2432">
        <ele>985.308</ele>
        <time>2016-09-28T18:20:19Z</time>
      </trkpt>
      <trkpt lat="43.09198" lon="-1.24376">
        <ele>988.262</ele>
        <time>2016-09-28T18:20:59Z</time>
      </trkpt>
      <trkpt lat="43.09077" lon="-1.24427">
        <ele>997.569</ele>
        <time>2016-09-28T18:21:39Z</time>
      </trkpt>
      <trkpt lat="43.08955" lon="-1.2444">
        <ele>1005.039</ele>
        <time>2016-09-28T18:22:19Z</time>
      </trkpt>
      <trkpt lat="43.08839" lon="-1.24552">
        <ele>1020.53</ele>
        <time>2016-09-28T18:22:59Z</time>
      </trkpt>
      <trkpt lat="43.089" lon="-1.24588">
        <ele>1019.029</ele>
        <time>2016-09-28T18:23:39Z</time>
      </trkpt>
      <trkpt lat="43.08958" lon="-1.24663">
        <ele>1032.051</ele>
        <time>2016-09-28T18:24:19Z</time>
      </trkpt>
      <trkpt lat="43.08809" lon="-1.24867">
        <ele>1049.712</ele>
        <time>2016-09-28T18:24:59Z</time>
      </trkpt>
      <trkpt lat="43.08759" lon="-1.24991">
        <ele>1056.814</ele>
        <time>2016-09-28T18:25:39Z</time>
      </trkpt>
      <trkpt lat="43.08656" lon="-1.25028">
        <ele>1068.916</ele>
        <time>2016-09-28T18:26:19Z</time>
      </trkpt>
      <trkpt lat="43.08584" lon="-1.25165">
        <ele>1074.176</ele>
        <time>2016-09-28T18:26:59Z</time>
      </trkpt>
      <trkpt lat="43.0848" lon="-1.25221">
        <ele>1084.613</ele>
        <time>2016-09-28T18:27:39Z</time>
      </trkpt>
      <trkpt lat="43.08327" lon="-1.25193">
        <ele>1092.608</ele>
        <time>2016-09-28T18:28:19Z</time>
      </trkpt>
      <trkpt lat="43.08129" lon="-1.25204">
        <ele>1093.267</ele>
        <time>2016-09-28T18:28:59Z</time>
      </trkpt>
      <trkpt lat="43.08113" lon="-1.25315">
        <ele>1102.054</ele>
        <time>2016-09-28T18:30:19Z</time>
      </trkpt>
      <trkpt lat="43.08041" lon="-1.25528">
        <ele>1120.515</ele>
        <time>2016-09-28T18:30:59Z</time>
      </trkpt>
      <trkpt lat="43.07957" lon="-1.25661">
        <ele>1130.544</ele>
        <time>2016-09-28T18:31:39Z</time>
      </trkpt>
      <trkpt lat="43.08015" lon="-1.25738">
        <ele>1132.866</ele>
        <time>2016-09-28T18:32:19Z</time>
      </trkpt>
      <trkpt lat="43.08021" lon="-1.25835">
        <ele>1129.617</ele>
        <time>2016-09-28T18:32:59Z</time>
      </trkpt>
      <trkpt lat="43.07968" lon="-1.25959">
        <ele>1122.999</ele>
        <time>2016-09-28T18:33:39Z</time>
      </trkpt>
      <trkpt lat="43.07914" lon="-1.26024">
        <ele>1120.646</ele>
        <time>2016-09-28T18:34:19Z</time>
      </trkpt>
      <trkpt lat="43.07777" lon="-1.2624">
        <ele>1110.788</ele>
        <time>2016-09-28T18:34:59Z</time>
      </trkpt>
      <trkpt lat="43.07687" lon="-1.26305">
        <ele>1112.416</ele>
        <time>2016-09-28T18:35:39Z</time>
      </trkpt>
      <trkpt lat="43.07574" lon="-1.2633">
        <ele>1118.008</ele>
        <time>2016-09-28T18:36:19Z</time>
      </trkpt>
      <trkpt lat="43.07446" lon="-1.26541">
        <ele>1129.26</ele>
        <time>2016-09-28T18:36:59Z</time>
      </trkpt>
      <trkpt lat="43.07405" lon="-1.26639">
        <ele>1131.527</ele>
        <time>2016-09-28T18:37:39Z</time>
      </trkpt>
      <trkpt lat="43.07292" lon="-1.2668">
        <ele>1144.367</ele>
        <time>2016-09-28T18:38:19Z</time>
      </trkpt>
      <trkpt lat="43.07178" lon="-1.26657">
        <ele>1150.988</ele>
        <time>2016-09-28T18:38:59Z</time>
      </trkpt>
      <trkpt lat="43.07115" lon="-1.26678">
        <ele>1157.337</ele>
        <time>2016-09-28T18:39:39Z</time>
      </trkpt>
      <trkpt lat="43.0712" lon="-1.26833">
        <ele>1169.589</ele>
        <time>2016-09-28T18:40:19Z</time>
      </trkpt>
      <trkpt lat="43.07101" lon="-1.26899">
        <ele>1175.04</ele>
        <time>2016-09-28T18:40:59Z</time>
      </trkpt>
      <trkpt lat="43.07034" lon="-1.2694">
        <ele>1182.492</ele>
        <time>2016-09-28T18:41:39Z</time>
      </trkpt>
      <trkpt lat="43.06969" lon="-1.26942">
        <ele>1188.354</ele>
        <time>2016-09-28T18:42:19Z</time>
      </trkpt>
      <trkpt lat="43.06814" lon="-1.26899">
        <ele>1195.956</ele>
        <time>2016-09-28T18:42:59Z</time>
      </trkpt>
      <trkpt lat="43.06786" lon="-1.26867">
        <ele>1194.011</ele>
        <time>2016-09-28T18:43:39Z</time>
      </trkpt>
      <trkpt lat="43.06755" lon="-1.26787">
        <ele>1195.208</ele>
        <time>2016-09-28T18:44:19Z</time>
      </trkpt>
      <trkpt lat="43.06345" lon="-1.26644">
        <ele>1193.321</ele>
        <time>2016-09-28T18:44:59Z</time>
      </trkpt>
      <trkpt lat="43.06174" lon="-1.26697">
        <ele>1194.258</ele>
        <time>2016-09-28T18:45:39Z</time>
      </trkpt>
      <trkpt lat="43.06135" lon="-1.26835">
        <ele>1202.578</ele>
        <time>2016-09-28T18:46:19Z</time>
      </trkpt>
      <trkpt lat="43.05977" lon="-1.26811">
        <ele>1219.249</ele>
        <time>2016-09-28T18:46:59Z</time>
      </trkpt>
      <trkpt lat="43.05867" lon="-1.26727">
        <ele>1227.498</ele>
        <time>2016-09-28T18:47:39Z</time>
      </trkpt>
      <trkpt lat="43.05648" lon="-1.26629">
        <ele>1252.86</ele>
        <time>2016-09-28T18:48:19Z</time>
      </trkpt>
      <trkpt lat="43.0553" lon="-1.26562">
        <ele>1269.311</ele>
        <time>2016-09-28T18:48:59Z</time>
      </trkpt>
      <trkpt lat="43.05524" lon="-1.26622">
        <ele>1278.873</ele>
        <time>2016-09-28T18:49:39Z</time>
      </trkpt>
      <trkpt lat="43.05482" lon="-1.26682">
        <ele>1290.049</ele>
        <time>2016-09-28T18:50:19Z</time>
      </trkpt>
      <trkpt lat="43.05311" lon="-1.26749">
        <ele>1285.002</ele>
        <time>2016-09-28T18:50:59Z</time>
      </trkpt>
      <trkpt lat="43.05179" lon="-1.26768">
        <ele>1284.522</ele>
        <time>2016-09-28T18:51:39Z</time>
      </trkpt>
      <trkpt lat="43.05085" lon="-1.26809">
        <ele>1287.508</ele>
        <time>2016-09-28T18:52:19Z</time>
      </trkpt>
      <trkpt lat="43.05052" lon="-1.26841">
        <ele>1288.27</ele>
        <time>2016-09-28T18:52:59Z</time>
      </trkpt>
      <trkpt lat="43.04999" lon="-1.26809">
        <ele>1297.557</ele>
        <time>2016-09-28T18:53:39Z</time>
      </trkpt>
      <trkpt lat="43.0492" lon="-1.26667">
        <ele>1304.167</ele>
        <time>2016-09-28T18:54:19Z</time>
      </trkpt>
      <trkpt lat="43.04788" lon="-1.26517">
        <ele>1311.238</ele>
        <time>2016-09-28T18:54:59Z</time>
      </trkpt>
      <trkpt lat="43.04684" lon="-1.26476">
        <ele>1308.819</ele>
        <time>2020-04-13T16:13:16Z</time>
      </trkpt>
      <trkpt lat="43.04597" lon="-1.26476">
        <ele>1309.58</ele>
        <time>2016-09-28T18:56:19Z</time>
      </trkpt>
      <trkpt lat="43.04518" lon="-1.26489">
        <ele>1318.532</ele>
        <time>2020-04-13T16:13:56Z</time>
      </trkpt>
      <trkpt lat="43.04484" lon="-1.26519">
        <ele>1323.393</ele>
        <time>2016-09-28T18:56:59Z</time>
      </trkpt>
      <trkpt lat="43.04453" lon="-1.26691">
        <ele>1318.165</ele>
        <time>2016-09-28T18:57:39Z</time>
      </trkpt>
      <trkpt lat="43.04361" lon="-1.26858">
        <ele>1317.821</ele>
        <time>2020-04-13T16:14:56Z</time>
      </trkpt>
      <trkpt lat="43.04287" lon="-1.27154">
        <ele>1309.808</ele>
        <time>2020-04-13T16:15:16Z</time>
      </trkpt>
      <trkpt lat="43.04247" lon="-1.27382">
        <ele>1301.085</ele>
        <time>2020-04-13T16:15:36Z</time>
      </trkpt>
      <trkpt lat="43.04174" lon="-1.27704">
        <ele>1295.082</ele>
        <time>2020-04-13T16:15:56Z</time>
      </trkpt>
      <trkpt lat="43.04072" lon="-1.27932">
        <ele>1295.132</ele>
        <time>2020-04-13T16:16:16Z</time>
      </trkpt>
      <trkpt lat="43.04036" lon="-1.28101">
        <ele>1285.473</ele>
        <time>2020-04-13T16:16:36Z</time>
      </trkpt>
      <trkpt lat="43.0395" lon="-1.28216">
        <ele>1286.342</ele>
        <time>2020-04-13T16:16:56Z</time>
      </trkpt>
      <trkpt lat="43.03894" lon="-1.28224">
        <ele>1290.384</ele>
        <time>2020-04-13T16:17:16Z</time>
      </trkpt>
      <trkpt lat="43.03838" lon="-1.28359">
        <ele>1292.275</ele>
        <time>2020-04-13T16:17:36Z</time>
      </trkpt>
      <trkpt lat="43.03767" lon="-1.2875">
        <ele>1309.187</ele>
        <time>2020-04-13T16:17:56Z</time>
      </trkpt>
      <trkpt lat="43.03605" lon="-1.29164">
        <ele>1345.986</ele>
        <time>2020-04-13T16:18:16Z</time>
      </trkpt>
      <trkpt lat="43.03539" lon="-1.2919">
        <ele>1355.36</ele>
        <time>2020-04-13T16:18:36Z</time>
      </trkpt>
      <trkpt lat="43.03464" lon="-1.29152">
        <ele>1367.326</ele>
        <time>2021-01-04T00:13:20Z</time>
      </trkpt>
      <trkpt lat="43.03446" lon="-1.29181">
        <ele>1371.008</ele>
        <time>2020-04-13T16:19:16Z</time>
      </trkpt>
      <trkpt lat="43.03386" lon="-1.29187">
        <ele>1371.234</ele>
        <time>2020-04-13T16:19:36Z</time>
      </trkpt>
      <trkpt lat="43.03303" lon="-1.29161">
        <ele>1372.871</ele>
        <time>2020-04-13T16:19:56Z</time>
      </trkpt>
      <trkpt lat="43.03191" lon="-1.29268">
        <ele>1395.271</ele>
        <time>2020-04-13T16:20:16Z</time>
      </trkpt>
      <trkpt lat="43.0309" lon="-1.2939">
        <ele>1408.432</ele>
        <time>2020-04-13T16:20:36Z</time>
      </trkpt>
      <trkpt lat="43.03065" lon="-1.29499">
        <ele>1411.391</ele>
        <time>2020-04-13T16:20:56Z</time>
      </trkpt>
      <trkpt lat="43.02984" lon="-1.2962">
        <ele>1417.023</ele>
        <time>2020-04-13T16:21:16Z</time>
      </trkpt>
      <trkpt lat="43.02885" lon="-1.29611">
        <ele>1420.994</ele>
        <time>2020-04-13T16:21:36Z</time>
      </trkpt>
      <trkpt lat="43.02675" lon="-1.2953">
        <ele>1427.026</ele>
        <time>2020-04-13T16:21:56Z</time>
      </trkpt>
      <trkpt lat="43.02622" lon="-1.2954">
        <ele>1432.761</ele>
        <time>2020-04-13T16:22:16Z</time>
      </trkpt>
      <trkpt lat="43.02592" lon="-1.29602">
        <ele>1420.521</ele>
        <time>2020-04-13T16:22:36Z</time>
      </trkpt>
      <trkpt lat="43.02537" lon="-1.29672">
        <ele>1397.713</ele>
        <time>2020-04-13T16:22:56Z</time>
      </trkpt>
      <trkpt lat="43.02415" lon="-1.29777">
        <ele>1353.008</ele>
        <time>2020-04-13T16:23:16Z</time>
      </trkpt>
      <trkpt lat="43.02245" lon="-1.29855">
        <ele>1296.442</ele>
        <time>2020-04-13T16:23:36Z</time>
      </trkpt>
      <trkpt lat="43.02177" lon="-1.29834">
        <ele>1278.849</ele>
        <time>2020-04-13T16:23:56Z</time>
      </trkpt>
      <trkpt lat="43.02063" lon="-1.3001">
        <ele>1256.139</ele>
        <time>2020-04-13T16:24:16Z</time>
      </trkpt>
      <trkpt lat="43.02011" lon="-1.30037">
        <ele>1250.14</ele>
        <time>2021-01-04T00:19:00Z</time>
      </trkpt>
      <trkpt lat="43.01966" lon="-1.30034">
        <ele>1242.469</ele>
        <time>2021-01-04T00:19:20Z</time>
      </trkpt>
      <trkpt lat="43.01917" lon="-1.2997">
        <ele>1219.241</ele>
        <time>2021-01-04T00:19:40Z</time>
      </trkpt>
      <trkpt lat="43.01873" lon="-1.29965">
        <ele>1204.082</ele>
        <time>2021-01-04T00:20:00Z</time>
      </trkpt>
      <trkpt lat="43.0184" lon="-1.30004">
        <ele>1191.654</ele>
        <time>2021-01-04T00:20:20Z</time>
      </trkpt>
      <trkpt lat="43.01803" lon="-1.30114">
        <ele>1168.855</ele>
        <time>2021-01-04T00:20:40Z</time>
      </trkpt>
      <trkpt lat="43.01721" lon="-1.3021">
        <ele>1138.307</ele>
        <time>2020-04-13T16:27:56Z</time>
      </trkpt>
      <trkpt lat="43.01333" lon="-1.30799">
        <ele>1121.117</ele>
        <time>2020-04-13T16:28:56Z</time>
      </trkpt>
      <trkpt lat="43.01276" lon="-1.30886">
        <ele>1110.708</ele>
        <time>2019-03-30T20:50:12Z</time>
      </trkpt>
      <trkpt lat="43.01231" lon="-1.30906">
        <ele>1102.531</ele>
        <time>2020-04-13T16:29:36Z</time>
      </trkpt>
      <trkpt lat="43.01169" lon="-1.3086">
        <ele>1085.688</ele>
        <time>2020-04-13T16:29:56Z</time>
      </trkpt>
      <trkpt lat="43.01126" lon="-1.30802">
        <ele>1070.048</ele>
        <time>2020-04-13T16:30:16Z</time>
      </trkpt>
      <trkpt lat="43.01005" lon="-1.30805">
        <ele>1049.079</ele>
        <time>2020-04-13T16:30:36Z</time>
      </trkpt>
      <trkpt lat="43.00935" lon="-1.30841">
        <ele>1035.028</ele>
        <time>2020-04-13T16:30:56Z</time>
      </trkpt>
      <trkpt lat="43.00855" lon="-1.30958">
        <ele>1017.67</ele>
        <time>2020-04-13T16:31:36Z</time>
      </trkpt>
      <trkpt lat="43.00744" lon="-1.31182">
        <ele>993.911</ele>
        <time>2020-04-13T16:32:16Z</time>
      </trkpt>
      <trkpt lat="43.00656" lon="-1.3139">
        <ele>959.853</ele>
        <time>2021-01-04T00:24:20Z</time>
      </trkpt>
      <trkpt lat="43.00664" lon="-1.315">
        <ele>951.842</ele>
        <time>2021-01-04T00:24:40Z</time>
      </trkpt>
      <trkpt lat="43.00766" lon="-1.31693">
        <ele>944.322</ele>
        <time>2020-04-13T16:33:16Z</time>
      </trkpt>
      <trkpt lat="43.00895" lon="-1.3188">
        <ele>938.414</ele>
        <time>2020-04-13T16:33:36Z</time>
      </trkpt>
      <trkpt lat="43.00886" lon="-1.31934">
        <ele>946.008</ele>
        <time>2020-04-13T16:33:56Z</time>
      </trkpt>
      <trkpt lat="43.00833" lon="-1.31913">
        <ele>943.86</ele>
        <time>2021-01-04T00:26:00Z</time>
      </trkpt>
      <trkpt lat="43.00816" lon="-1.32008">
        <ele>944.787</ele>
        <time>2021-01-04T00:26:20Z</time>
      </trkpt>
      <trkpt lat="43.00872" lon="-1.32046">
        <ele>947.227</ele>
        <time>2021-01-04T00:26:40Z</time>
      </trkpt>
    </trkseg>
  </trk>
</gpx>